createdAt,value
2017-11-29T00:00:37.539Z,0
2017-11-29T00:01:37.646Z,0
2017-11-29T00:03:36.791Z,0
2017-11-29T00:04:37.577Z,0
2017-11-29T00:05:52.033Z,0
2017-11-29T00:06:37.613Z,0
2017-11-29T00:07:52.314Z,0
2017-11-29T00:08:52.352Z,0
2017-11-29T00:09:37.770Z,0
2017-11-29T00:10:37.717Z,0
2017-11-29T00:11:37.764Z,0
2017-11-29T00:12:37.732Z,0
2017-11-29T00:13:37.763Z,0
2017-11-29T00:14:37.762Z,0
2017-11-29T00:15:52.462Z,0
2017-11-29T00:16:37.809Z,0
2017-11-29T00:17:37.570Z,0
2017-11-29T00:18:37.842Z,0
2017-11-29T00:19:37.860Z,0
2017-11-29T00:20:37.861Z,0
2017-11-29T00:21:37.860Z,0
2017-11-29T00:22:37.665Z,0
2017-11-29T00:23:37.911Z,0
2017-11-29T00:24:37.938Z,0
2017-11-29T00:25:37.988Z,0
2017-11-29T00:26:37.958Z,0
2017-11-29T00:27:38.001Z,0
2017-11-29T00:28:37.999Z,0
2017-11-29T00:29:37.760Z,0
2017-11-29T00:30:52.714Z,0
2017-11-29T00:31:38.032Z,0
2017-11-29T00:32:52.713Z,0
2017-11-29T00:33:37.821Z,0
2017-11-29T00:34:37.839Z,0
2017-11-29T00:35:37.828Z,0
2017-11-29T00:36:38.118Z,0
2017-11-29T00:37:38.158Z,0
2017-11-29T00:38:38.158Z,0
2017-11-29T00:39:52.824Z,0
2017-11-29T00:40:37.935Z,0
2017-11-29T00:41:38.211Z,0
2017-11-29T00:42:38.268Z,0
2017-11-29T00:43:38.233Z,0
2017-11-29T00:44:52.907Z,0
2017-11-29T00:46:38.267Z,0
2017-11-29T00:47:38.320Z,0
2017-11-29T00:48:38.056Z,0
2017-11-29T00:50:38.101Z,0
2017-11-29T00:51:38.356Z,0
2017-11-29T00:52:38.416Z,0
2017-11-29T00:53:38.390Z,0
2017-11-29T00:54:53.098Z,0
2017-11-29T00:55:38.465Z,0
2017-11-29T00:56:38.202Z,0
2017-11-29T00:57:38.488Z,0
2017-11-29T01:00:38.542Z,0
2017-11-29T01:01:38.569Z,0
2017-11-29T01:02:53.240Z,0
2017-11-29T01:03:38.595Z,0
2017-11-29T01:04:38.606Z,0
2017-11-29T01:05:53.293Z,0
2017-11-29T01:06:38.608Z,0
2017-11-29T01:07:38.665Z,0
2017-11-29T01:08:38.656Z,0
2017-11-29T01:09:38.673Z,0
2017-11-29T01:10:38.699Z,0
2017-11-29T01:11:38.436Z,0
2017-11-29T01:12:53.404Z,0
2017-11-29T01:13:38.769Z,0
2017-11-29T01:14:53.420Z,0
2017-11-29T01:15:38.800Z,0
2017-11-29T01:16:38.797Z,0
2017-11-29T01:17:38.797Z,0
2017-11-29T01:18:53.255Z,0
2017-11-29T01:19:38.858Z,0
2017-11-29T01:20:53.511Z,0
2017-11-29T01:21:38.863Z,0
2017-11-29T01:22:38.900Z,0
2017-11-29T01:24:38.895Z,0
2017-11-29T01:25:38.945Z,0
2017-11-29T01:26:39.071Z,0
2017-11-29T01:27:38.976Z,0
2017-11-29T01:28:39.026Z,0
2017-11-29T01:29:39.032Z,0
2017-11-29T01:30:39.038Z,0
2017-11-29T01:31:39.044Z,0
2017-11-29T01:32:39.051Z,0
2017-11-29T01:33:39.090Z,0
2017-11-29T01:34:53.777Z,0
2017-11-29T01:35:38.608Z,0
2017-11-29T01:36:53.810Z,0
2017-11-29T01:37:39.166Z,0
2017-11-29T01:38:39.224Z,0
2017-11-29T01:39:39.171Z,0
2017-11-29T01:40:39.191Z,0
2017-11-29T01:41:39.189Z,0
2017-11-29T01:42:39.209Z,0
2017-11-29T01:43:39.210Z,0
2017-11-29T01:44:53.917Z,0
2017-11-29T01:45:39.261Z,0
2017-11-29T01:47:39.290Z,0
2017-11-29T01:48:39.343Z,0
2017-11-29T01:49:54.008Z,0
2017-11-29T01:50:54.001Z,0
2017-11-29T01:51:39.090Z,0
2017-11-29T01:52:39.404Z,0
2017-11-29T01:53:39.133Z,0
2017-11-29T01:54:39.420Z,0
2017-11-29T01:55:54.121Z,0
2017-11-29T01:56:39.461Z,0
2017-11-29T01:57:39.469Z,0
2017-11-29T01:58:39.480Z,0
2017-11-29T01:59:39.527Z,0
2017-11-29T02:00:39.521Z,0
2017-11-29T02:01:39.533Z,0
2017-11-29T02:02:39.326Z,0
2017-11-29T02:03:39.585Z,0
2017-11-29T02:04:39.551Z,0
2017-11-29T02:05:54.256Z,0
2017-11-29T02:06:39.599Z,0
2017-11-29T02:07:39.374Z,0
2017-11-29T02:08:39.662Z,0
2017-11-29T02:09:39.736Z,0
2017-11-29T02:10:39.656Z,0
2017-11-29T02:11:39.425Z,0
2017-11-29T02:12:39.701Z,0
2017-11-29T02:13:39.750Z,0
2017-11-29T02:14:39.763Z,0
2017-11-29T02:15:39.732Z,0
2017-11-29T02:16:39.756Z,0
2017-11-29T02:17:39.789Z,0
2017-11-29T02:18:39.569Z,0
2017-11-29T02:19:39.854Z,0
2017-11-29T02:20:54.322Z,0
2017-11-29T02:21:39.872Z,0
2017-11-29T02:22:39.844Z,0
2017-11-29T02:23:39.883Z,0
2017-11-29T02:25:39.903Z,0
2017-11-29T02:26:39.913Z,0
2017-11-29T02:27:39.935Z,0
2017-11-29T02:28:39.958Z,0
2017-11-29T02:29:39.964Z,0
2017-11-29T02:30:39.760Z,0
2017-11-29T02:31:39.987Z,0
2017-11-29T02:32:40.019Z,0
2017-11-29T02:35:39.828Z,0
2017-11-29T02:36:40.120Z,0
2017-11-29T02:37:54.788Z,0
2017-11-29T02:38:40.151Z,0
2017-11-29T02:40:40.171Z,0
2017-11-29T02:41:54.846Z,0
2017-11-29T02:42:54.602Z,0
2017-11-29T02:43:39.696Z,0
2017-11-29T02:44:39.688Z,0
2017-11-29T02:45:40.342Z,0
2017-11-29T02:46:54.921Z,0
2017-11-29T02:47:40.268Z,0
2017-11-29T02:48:40.276Z,0
2017-11-29T02:49:40.317Z,0
2017-11-29T02:50:40.058Z,0
2017-11-29T02:51:40.043Z,0
2017-11-29T02:52:40.331Z,0
2017-11-29T02:53:55.043Z,0
2017-11-29T02:54:40.413Z,0
2017-11-29T02:55:40.393Z,0
2017-11-29T02:56:40.397Z,0
2017-11-29T02:57:40.424Z,0
2017-11-29T02:58:40.402Z,0
2017-11-29T02:59:40.437Z,0
2017-11-29T03:00:40.508Z,0
2017-11-29T03:01:55.135Z,0
2017-11-29T03:02:40.505Z,0
2017-11-29T03:03:40.515Z,0
2017-11-29T03:04:40.505Z,0
2017-11-29T03:05:40.574Z,0
2017-11-29T03:06:40.580Z,0
2017-11-29T03:07:40.563Z,0
2017-11-29T03:08:40.607Z,0
2017-11-29T03:09:55.294Z,0
2017-11-29T03:10:40.597Z,0
2017-11-29T03:11:40.614Z,0
2017-11-29T03:12:40.641Z,0
2017-11-29T03:13:40.675Z,0
2017-11-29T03:14:40.703Z,0
2017-11-29T03:15:40.711Z,0
2017-11-29T03:16:40.712Z,0
2017-11-29T03:17:40.737Z,0
2017-11-29T03:18:40.766Z,0
2017-11-29T03:19:40.778Z,0
2017-11-29T03:20:40.776Z,0
2017-11-29T03:21:40.804Z,0
2017-11-29T03:22:55.491Z,0
2017-11-29T03:23:40.842Z,0
2017-11-29T03:24:40.807Z,0
2017-11-29T03:26:40.943Z,0
2017-11-29T03:27:40.898Z,0
2017-11-29T03:28:40.921Z,0
2017-11-29T03:29:40.928Z,0
2017-11-29T03:30:55.597Z,0
2017-11-29T03:31:40.671Z,0
2017-11-29T03:32:55.626Z,0
2017-11-29T03:33:55.661Z,0
2017-11-29T03:34:40.975Z,0
2017-11-29T03:35:40.988Z,0
2017-11-29T03:36:55.673Z,0
2017-11-29T03:37:41.067Z,0
2017-11-29T03:38:41.074Z,0
2017-11-29T03:39:41.048Z,0
2017-11-29T03:41:10.157Z,0
2017-11-29T03:41:41.104Z,0
2017-11-29T03:42:41.091Z,0
2017-11-29T03:43:41.162Z,0
2017-11-29T03:44:41.149Z,0
2017-11-29T03:45:55.848Z,0
2017-11-29T03:46:41.221Z,0
2017-11-29T03:47:41.179Z,0
2017-11-29T03:48:41.226Z,0
2017-11-29T03:49:41.225Z,0
2017-11-29T03:50:41.286Z,0
2017-11-29T03:51:41.259Z,0
2017-11-29T03:52:41.281Z,0
2017-11-29T03:53:41.297Z,0
2017-11-29T03:54:41.292Z,0
2017-11-29T03:55:41.052Z,0
2017-11-29T03:56:41.327Z,0
2017-11-29T03:57:41.371Z,0
2017-11-29T03:58:41.382Z,0
2017-11-29T04:00:41.408Z,0
2017-11-29T04:01:41.426Z,0
2017-11-29T04:02:41.407Z,0
2017-11-29T04:04:56.147Z,0
2017-11-29T04:05:41.501Z,0
2017-11-29T04:06:41.495Z,0
2017-11-29T04:07:41.533Z,0
2017-11-29T04:08:41.522Z,0
2017-11-29T04:09:41.510Z,0
2017-11-29T04:11:41.580Z,0
2017-11-29T04:12:56.272Z,0
2017-11-29T04:13:41.595Z,0
2017-11-29T04:14:41.617Z,0
2017-11-29T04:15:41.598Z,0
2017-11-29T04:16:41.385Z,0
2017-11-29T04:17:41.684Z,0
2017-11-29T04:18:41.689Z,0
2017-11-29T04:19:41.732Z,0
2017-11-29T04:20:41.734Z,0
2017-11-29T04:21:41.729Z,0
2017-11-29T04:22:41.721Z,0
2017-11-29T04:23:41.736Z,0
2017-11-29T04:24:41.776Z,0
2017-11-29T04:26:41.825Z,0
2017-11-29T04:27:41.800Z,0
2017-11-29T04:28:56.489Z,0
2017-11-29T04:29:41.817Z,0
2017-11-29T04:30:41.866Z,0
2017-11-29T04:31:41.886Z,0
2017-11-29T04:32:41.924Z,0
2017-11-29T04:33:41.926Z,0
2017-11-29T04:34:41.918Z,0
2017-11-29T04:35:41.683Z,0
2017-11-29T04:36:41.959Z,0
2017-11-29T04:37:41.946Z,0
2017-11-29T04:38:41.944Z,0
2017-11-29T04:39:41.988Z,0
2017-11-29T04:40:42.019Z,0
2017-11-29T04:41:42.037Z,0
2017-11-29T04:42:42.020Z,0
2017-11-29T04:43:42.045Z,0
2017-11-29T04:44:56.714Z,0
2017-11-29T04:45:42.144Z,0
2017-11-29T04:46:42.090Z,0
2017-11-29T04:47:42.104Z,0
2017-11-29T04:48:42.096Z,0
2017-11-29T04:49:56.802Z,0
2017-11-29T04:50:42.170Z,0
2017-11-29T04:51:42.138Z,0
2017-11-29T04:52:42.171Z,0
2017-11-29T04:53:42.225Z,0
2017-11-29T04:54:42.208Z,0
2017-11-29T04:55:42.223Z,0
2017-11-29T04:56:41.977Z,0
2017-11-29T04:57:42.297Z,0
2017-11-29T04:58:42.012Z,0
2017-11-29T04:59:42.278Z,0
2017-11-29T05:00:56.966Z,0
2017-11-29T05:01:42.292Z,0
2017-11-29T05:02:42.348Z,0
2017-11-29T05:03:42.354Z,0
2017-11-29T05:04:57.021Z,0
2017-11-29T05:05:42.361Z,0
2017-11-29T05:06:57.058Z,0
2017-11-29T05:07:42.441Z,0
2017-11-29T05:08:42.167Z,0
2017-11-29T05:09:42.412Z,0
2017-11-29T05:10:57.127Z,0
2017-11-29T05:11:42.489Z,0
2017-11-29T05:12:42.494Z,0
2017-11-29T05:13:42.527Z,0
2017-11-29T05:14:42.492Z,0
2017-11-29T05:15:57.191Z,0
2017-11-29T05:16:42.275Z,0
2017-11-29T05:17:42.542Z,0
2017-11-29T05:18:42.349Z,0
2017-11-29T05:19:57.248Z,0
2017-11-29T05:20:57.246Z,0
2017-11-29T05:21:42.586Z,0
2017-11-29T05:22:42.638Z,0
2017-11-29T05:23:42.414Z,0
2017-11-29T05:24:42.668Z,0
2017-11-29T05:25:42.685Z,0
2017-11-29T05:26:42.673Z,0
2017-11-29T05:27:42.728Z,0
2017-11-29T05:28:42.428Z,0
2017-11-29T05:29:42.745Z,0
2017-11-29T05:30:42.769Z,0
2017-11-29T05:31:42.751Z,0
2017-11-29T05:32:42.806Z,0
2017-11-29T05:33:42.799Z,0
2017-11-29T05:34:42.813Z,0
2017-11-29T05:35:42.824Z,0
2017-11-29T05:36:42.857Z,0
2017-11-29T05:37:42.834Z,0
2017-11-29T05:39:57.559Z,0
2017-11-29T05:40:42.928Z,0
2017-11-29T05:41:42.897Z,0
2017-11-29T05:42:57.324Z,0
2017-11-29T05:43:42.979Z,0
2017-11-29T05:44:42.940Z,0
2017-11-29T05:45:42.728Z,0
2017-11-29T05:46:42.994Z,0
2017-11-29T05:47:57.659Z,0
2017-11-29T05:48:43.025Z,0
2017-11-29T05:49:57.669Z,0
2017-11-29T05:50:43.040Z,0
2017-11-29T05:51:43.060Z,0
2017-11-29T05:52:43.106Z,0
2017-11-29T05:53:42.825Z,0
2017-11-29T05:54:43.113Z,0
2017-11-29T05:55:43.112Z,0
2017-11-29T05:56:43.137Z,0
2017-11-29T05:57:43.109Z,0
2017-11-29T05:59:57.832Z,0
2017-11-29T06:00:42.942Z,0
2017-11-29T06:01:42.948Z,0
2017-11-29T06:02:42.949Z,0
2017-11-29T06:03:57.885Z,0
2017-11-29T06:04:43.247Z,0
2017-11-29T06:05:43.268Z,0
2017-11-29T06:06:43.017Z,0
2017-11-29T06:07:43.286Z,0
2017-11-29T06:08:43.016Z,0
2017-11-29T06:09:43.056Z,0
2017-11-29T06:10:57.992Z,0
2017-11-29T06:11:58.028Z,0
2017-11-29T06:12:43.360Z,0
2017-11-29T06:13:57.780Z,4
2017-11-29T06:14:58.076Z,4
2017-11-29T06:15:43.394Z,4
2017-11-29T06:16:58.075Z,4
2017-11-29T06:17:58.074Z,4
2017-11-29T06:18:43.417Z,4
2017-11-29T06:20:12.771Z,4
2017-11-29T06:20:43.482Z,0
2017-11-29T06:21:43.234Z,4
2017-11-29T06:22:43.470Z,4
2017-11-29T06:23:43.500Z,4
2017-11-29T06:24:43.496Z,8
2017-11-29T06:25:57.952Z,4
2017-11-29T06:26:43.303Z,4
2017-11-29T06:27:43.563Z,8
2017-11-29T06:28:43.613Z,8
2017-11-29T06:29:43.589Z,8
2017-11-29T06:30:43.643Z,8
2017-11-29T06:31:43.638Z,8
2017-11-29T06:32:43.649Z,12
2017-11-29T06:33:43.394Z,12
2017-11-29T06:34:43.644Z,16
2017-11-29T06:36:13.007Z,16
2017-11-29T06:36:43.461Z,20
2017-11-29T06:37:43.446Z,20
2017-11-29T06:38:43.721Z,24
2017-11-29T06:39:43.767Z,28
2017-11-29T06:40:43.780Z,32
2017-11-29T06:41:43.783Z,32
2017-11-29T06:42:43.794Z,40
2017-11-29T06:43:43.554Z,44
2017-11-29T06:44:58.492Z,48
2017-11-29T06:45:58.498Z,56
2017-11-29T06:46:43.863Z,64
2017-11-29T06:47:43.584Z,68
2017-11-29T06:49:43.885Z,84
2017-11-29T06:51:43.927Z,96
2017-11-29T06:52:43.972Z,104
2017-11-29T06:53:43.958Z,112
2017-11-29T06:54:58.634Z,124
2017-11-29T06:55:43.957Z,128
2017-11-29T06:56:43.990Z,140
2017-11-29T06:57:43.993Z,148
2017-11-29T06:58:44.020Z,160
2017-11-29T06:59:58.715Z,172
2017-11-29T07:00:44.018Z,180
2017-11-29T07:01:43.853Z,196
2017-11-29T07:02:43.827Z,216
2017-11-29T07:03:44.057Z,236
2017-11-29T07:04:44.124Z,256
2017-11-29T07:05:44.165Z,276
2017-11-29T07:06:44.182Z,296
2017-11-29T07:07:44.159Z,320
2017-11-29T07:08:43.924Z,340
2017-11-29T07:09:44.186Z,360
2017-11-29T07:10:44.241Z,384
2017-11-29T07:11:44.205Z,416
2017-11-29T07:12:44.219Z,440
2017-11-29T07:13:58.900Z,460
2017-11-29T07:14:43.746Z,468
2017-11-29T07:15:43.994Z,480
2017-11-29T07:16:44.291Z,504
2017-11-29T07:17:44.408Z,528
2017-11-29T07:18:58.736Z,552
2017-11-29T07:19:44.343Z,568
2017-11-29T07:21:58.748Z,608
2017-11-29T07:22:59.021Z,620
2017-11-29T07:23:44.371Z,636
2017-11-29T07:24:44.376Z,652
2017-11-29T07:25:44.148Z,668
2017-11-29T07:26:44.438Z,684
2017-11-29T07:27:44.421Z,692
2017-11-29T07:28:44.445Z,696
2017-11-29T07:29:44.454Z,704
2017-11-29T07:30:59.131Z,728
2017-11-29T07:31:44.279Z,744
2017-11-29T07:32:44.546Z,772
2017-11-29T07:33:44.544Z,800
2017-11-29T07:35:44.569Z,872
2017-11-29T07:36:44.584Z,904
2017-11-29T07:37:59.256Z,956
2017-11-29T07:38:59.299Z,1008
2017-11-29T07:40:44.386Z,1104
2017-11-29T07:41:44.639Z,1148
2017-11-29T07:42:44.697Z,1196
2017-11-29T07:43:44.455Z,1244
2017-11-29T07:44:44.672Z,1272
2017-11-29T07:45:59.359Z,1288
2017-11-29T07:46:44.712Z,1288
2017-11-29T07:47:44.734Z,1292
2017-11-29T07:48:44.818Z,1340
2017-11-29T07:49:44.800Z,1436
2017-11-29T07:50:59.436Z,1540
2017-11-29T07:51:44.823Z,1704
2017-11-29T07:52:44.826Z,1800
2017-11-29T07:53:44.849Z,2132
2017-11-29T07:54:59.504Z,2376
2017-11-29T07:55:44.899Z,2420
2017-11-29T07:56:44.878Z,2300
2017-11-29T07:57:44.858Z,2232
2017-11-29T07:58:44.929Z,2172
2017-11-29T07:59:59.588Z,2184
2017-11-29T08:00:44.938Z,2176
2017-11-29T08:01:44.930Z,2192
2017-11-29T08:02:44.962Z,2248
2017-11-29T08:03:44.773Z,2332
2017-11-29T08:04:45.020Z,2428
2017-11-29T08:05:45.112Z,2540
2017-11-29T08:06:45.021Z,2760
2017-11-29T08:07:44.803Z,2792
2017-11-29T08:08:59.730Z,2832
2017-11-29T08:09:45.100Z,2904
2017-11-29T08:10:59.769Z,3064
2017-11-29T08:12:45.132Z,3312
2017-11-29T08:13:44.621Z,3524
2017-11-29T08:14:45.204Z,3644
2017-11-29T08:15:59.827Z,3616
2017-11-29T08:16:45.144Z,3568
2017-11-29T08:17:59.851Z,3444
2017-11-29T08:18:45.273Z,3404
2017-11-29T08:19:45.266Z,3288
2017-11-29T08:20:45.235Z,3172
2017-11-29T08:21:45.227Z,3464
2017-11-29T08:22:44.985Z,4332
2017-11-29T08:23:45.324Z,4808
2017-11-29T08:24:59.942Z,3580
2017-11-29T08:26:00.005Z,3228
2017-11-29T08:26:45.323Z,3152
2017-11-29T08:27:45.367Z,3100
2017-11-29T08:28:45.369Z,3052
2017-11-29T08:29:45.413Z,3028
2017-11-29T08:30:59.816Z,3032
2017-11-29T08:33:45.415Z,3352
2017-11-29T08:34:45.222Z,3700
2017-11-29T08:35:45.484Z,4344
2017-11-29T08:36:45.489Z,5188
2017-11-29T08:37:45.497Z,5556
2017-11-29T08:38:45.504Z,6964
2017-11-29T08:40:00.172Z,5460
2017-11-29T08:40:45.551Z,5424
2017-11-29T08:41:45.587Z,4896
2017-11-29T08:42:45.571Z,4504
2017-11-29T08:43:45.585Z,4492
2017-11-29T08:44:45.658Z,4480
2017-11-29T08:45:45.639Z,4424
2017-11-29T08:46:45.626Z,4488
2017-11-29T08:48:00.046Z,4676
2017-11-29T08:48:45.673Z,4760
2017-11-29T08:49:45.686Z,4788
2017-11-29T08:50:45.731Z,4756
2017-11-29T08:51:45.763Z,5204
2017-11-29T08:52:45.702Z,6268
2017-11-29T08:55:00.152Z,5752
2017-11-29T08:55:45.789Z,6020
2017-11-29T08:56:45.820Z,6204
2017-11-29T08:58:00.459Z,6116
2017-11-29T08:58:45.846Z,6100
2017-11-29T09:00:00.503Z,6116
2017-11-29T09:00:45.852Z,6048
2017-11-29T09:02:00.562Z,6056
2017-11-29T09:03:45.646Z,6112
2017-11-29T09:04:45.654Z,6140
2017-11-29T09:05:45.926Z,6112
2017-11-29T09:07:45.933Z,6116
2017-11-29T09:08:45.716Z,5944
2017-11-29T09:09:46.014Z,5856
2017-11-29T09:10:46.030Z,6032
2017-11-29T09:11:45.767Z,6080
2017-11-29T09:12:46.103Z,5956
2017-11-29T09:14:00.823Z,6008
2017-11-29T09:15:00.747Z,6332
2017-11-29T09:15:46.121Z,5920
2017-11-29T09:16:46.147Z,5980
2017-11-29T09:17:45.865Z,5952
2017-11-29T09:18:46.171Z,5940
2017-11-29T09:19:46.168Z,5728
2017-11-29T09:20:46.175Z,5920
2017-11-29T09:21:46.222Z,5724
2017-11-29T09:22:45.676Z,5528
2017-11-29T09:23:46.183Z,5912
2017-11-29T09:24:46.200Z,5380
2017-11-29T09:26:46.013Z,5628
2017-11-29T09:28:46.311Z,5896
2017-11-29T09:30:00.969Z,5900
2017-11-29T09:30:46.318Z,5956
2017-11-29T09:31:46.093Z,5956
2017-11-29T09:32:46.355Z,5924
2017-11-29T09:33:46.379Z,5920
2017-11-29T09:34:46.418Z,5740
2017-11-29T09:35:46.387Z,5692
2017-11-29T09:37:01.071Z,5912
2017-11-29T09:38:01.109Z,5904
2017-11-29T09:38:46.472Z,5908
2017-11-29T09:39:46.485Z,5520
2017-11-29T09:41:00.914Z,5900
2017-11-29T09:41:46.472Z,5020
2017-11-29T09:42:46.541Z,5940
2017-11-29T09:43:46.524Z,5916
2017-11-29T09:44:46.548Z,5936
2017-11-29T09:46:00.992Z,5976
2017-11-29T09:46:46.352Z,5928
2017-11-29T09:47:46.596Z,5732
2017-11-29T09:48:46.591Z,5728
2017-11-29T09:49:46.621Z,5804
2017-11-29T09:50:46.643Z,5468
2017-11-29T09:51:46.628Z,5596
2017-11-29T09:52:46.799Z,4656
2017-11-29T09:53:46.693Z,5284
2017-11-29T09:54:46.708Z,4880
2017-11-29T09:55:46.747Z,4936
2017-11-29T09:56:46.523Z,4796
2017-11-29T09:57:46.802Z,4672
2017-11-29T09:58:46.831Z,4604
2017-11-29T09:59:46.822Z,4368
2017-11-29T10:01:01.495Z,4396
2017-11-29T10:01:46.808Z,4312
2017-11-29T10:02:46.851Z,4168
2017-11-29T10:03:46.847Z,4144
2017-11-29T10:04:46.900Z,4088
2017-11-29T10:05:46.898Z,4032
2017-11-29T10:06:46.934Z,3964
2017-11-29T10:08:01.686Z,3908
2017-11-29T10:08:46.719Z,3892
2017-11-29T10:10:47.086Z,3868
2017-11-29T10:11:46.970Z,3856
2017-11-29T10:12:46.984Z,3840
2017-11-29T10:13:47.011Z,3844
2017-11-29T10:14:46.774Z,3840
2017-11-29T10:15:47.051Z,3852
2017-11-29T10:16:47.071Z,3860
2017-11-29T10:17:47.062Z,3860
2017-11-29T10:18:47.226Z,3856
2017-11-29T10:19:47.138Z,3860
2017-11-29T10:20:47.103Z,3856
2017-11-29T10:21:46.893Z,3860
2017-11-29T10:22:47.198Z,3848
2017-11-29T10:23:46.904Z,3836
2017-11-29T10:24:47.190Z,3828
2017-11-29T10:25:47.204Z,3832
2017-11-29T10:26:47.238Z,3832
2017-11-29T10:27:47.254Z,3840
2017-11-29T10:29:01.922Z,3844
2017-11-29T10:29:47.244Z,3836
2017-11-29T10:30:47.302Z,3836
2017-11-29T10:31:47.399Z,3840
2017-11-29T10:33:01.739Z,3844
2017-11-29T10:33:47.363Z,3844
2017-11-29T10:35:01.766Z,3840
2017-11-29T10:36:02.051Z,3844
2017-11-29T10:37:02.063Z,3844
2017-11-29T10:38:02.049Z,3840
2017-11-29T10:39:02.099Z,3844
2017-11-29T10:39:47.195Z,3848
2017-11-29T10:41:02.113Z,3860
2017-11-29T10:42:01.864Z,3860
2017-11-29T10:42:47.506Z,3868
2017-11-29T10:43:47.496Z,3880
2017-11-29T10:44:47.506Z,3880
2017-11-29T10:45:47.567Z,3892
2017-11-29T10:47:47.292Z,3924
2017-11-29T10:49:16.911Z,3940
2017-11-29T10:49:47.594Z,3940
2017-11-29T10:50:47.462Z,3960
2017-11-29T10:52:47.681Z,3960
2017-11-29T10:54:02.339Z,3952
2017-11-29T10:54:47.658Z,3952
2017-11-29T10:56:02.379Z,3960
2017-11-29T10:56:47.743Z,3960
2017-11-29T10:57:47.703Z,3964
2017-11-29T10:58:47.778Z,3952
2017-11-29T10:59:47.772Z,3964
2017-11-29T11:00:47.779Z,3960
2017-11-29T11:01:47.784Z,3956
2017-11-29T11:02:47.833Z,3976
2017-11-29T11:03:47.865Z,3980
2017-11-29T11:05:02.522Z,3984
2017-11-29T11:05:47.840Z,3984
2017-11-29T11:06:47.895Z,3984
2017-11-29T11:07:47.880Z,3968
2017-11-29T11:08:47.937Z,3984
2017-11-29T11:09:47.398Z,3984
2017-11-29T11:11:02.368Z,4000
2017-11-29T11:11:47.992Z,4016
2017-11-29T11:12:47.702Z,4020
2017-11-29T11:13:48.001Z,4016
2017-11-29T11:14:47.985Z,4016
2017-11-29T11:16:47.792Z,3988
2017-11-29T11:18:48.076Z,3980
2017-11-29T11:19:48.094Z,3992
2017-11-29T11:21:02.865Z,4000
2017-11-29T11:21:48.131Z,3996
2017-11-29T11:22:47.889Z,3992
2017-11-29T11:23:48.175Z,3992
2017-11-29T11:24:47.911Z,3976
2017-11-29T11:25:47.928Z,3956
2017-11-29T11:26:48.189Z,3948
2017-11-29T11:28:02.905Z,3924
2017-11-29T11:28:48.353Z,3920
2017-11-29T11:29:48.285Z,3920
2017-11-29T11:31:48.307Z,3884
2017-11-29T11:33:48.311Z,3860
2017-11-29T11:34:48.092Z,3864
2017-11-29T11:36:03.035Z,3864
2017-11-29T11:36:48.356Z,3868
2017-11-29T11:37:48.390Z,3868
2017-11-29T11:38:48.399Z,3868
2017-11-29T11:39:48.413Z,3876
2017-11-29T11:40:48.174Z,3880
2017-11-29T11:41:48.455Z,3872
2017-11-29T11:42:48.489Z,3852
2017-11-29T11:43:48.249Z,3860
2017-11-29T11:44:48.293Z,3852
2017-11-29T11:45:48.537Z,3868
2017-11-29T11:46:48.521Z,3868
2017-11-29T11:47:48.541Z,3888
2017-11-29T11:48:48.554Z,3892
2017-11-29T11:49:48.577Z,3896
2017-11-29T11:50:48.607Z,3896
2017-11-29T11:51:48.631Z,3900
2017-11-29T11:52:48.627Z,3896
2017-11-29T11:53:48.634Z,3896
2017-11-29T11:55:48.445Z,3868
2017-11-29T11:56:48.435Z,3864
2017-11-29T11:57:48.717Z,3864
2017-11-29T11:58:48.727Z,3856
2017-11-29T12:00:48.527Z,3844
2017-11-29T12:01:48.538Z,3836
2017-11-29T12:02:48.821Z,3844
2017-11-29T12:03:48.822Z,3852
2017-11-29T12:05:03.221Z,3860
2017-11-29T12:05:48.353Z,3872
2017-11-29T12:06:48.880Z,3888
2017-11-29T12:08:03.277Z,3904
2017-11-29T12:08:48.670Z,3888
2017-11-29T12:09:48.904Z,3860
2017-11-29T12:11:48.725Z,3804
2017-11-29T12:12:48.445Z,3824
2017-11-29T12:14:03.396Z,3864
2017-11-29T12:14:49.013Z,3864
2017-11-29T12:16:03.700Z,3848
2017-11-29T12:16:48.789Z,3828
2017-11-29T12:18:03.480Z,3844
2017-11-29T12:18:49.092Z,3832
2017-11-29T12:20:48.852Z,3824
2017-11-29T12:21:49.130Z,3828
2017-11-29T12:22:48.634Z,3832
2017-11-29T12:24:03.791Z,3828
2017-11-29T12:24:49.164Z,3816
2017-11-29T12:25:49.165Z,3812
2017-11-29T12:26:49.170Z,3800
2017-11-29T12:27:49.254Z,3796
2017-11-29T12:28:49.247Z,3800
2017-11-29T12:29:49.279Z,3784
2017-11-29T12:30:49.023Z,3780
2017-11-29T12:31:49.045Z,3712
2017-11-29T12:32:49.331Z,3704
2017-11-29T12:33:49.344Z,3736
2017-11-29T12:34:49.339Z,3744
2017-11-29T12:35:49.377Z,3716
2017-11-29T12:36:49.363Z,3704
2017-11-29T12:37:49.383Z,3660
2017-11-29T12:38:49.419Z,3604
2017-11-29T12:40:04.185Z,3652
2017-11-29T12:40:49.194Z,3676
2017-11-29T12:41:49.466Z,3664
2017-11-29T12:42:49.470Z,3592
2017-11-29T12:44:04.180Z,3492
2017-11-29T12:45:04.166Z,3468
2017-11-29T12:45:49.565Z,3448
2017-11-29T12:47:04.226Z,3244
2017-11-29T12:47:49.304Z,3236
2017-11-29T12:49:49.363Z,3316
2017-11-29T12:50:49.584Z,3328
2017-11-29T12:51:49.620Z,3296
2017-11-29T12:52:49.387Z,3264
2017-11-29T12:53:49.653Z,3224
2017-11-29T12:54:49.404Z,3296
2017-11-29T12:56:04.360Z,3332
2017-11-29T12:56:49.709Z,3328
2017-11-29T12:57:49.475Z,3324
2017-11-29T12:58:49.743Z,3300
2017-11-29T13:00:04.162Z,3272
2017-11-29T13:01:04.542Z,3280
2017-11-29T13:01:49.822Z,3280
2017-11-29T13:02:49.824Z,3288
2017-11-29T13:03:49.813Z,3280
2017-11-29T13:04:49.817Z,3288
2017-11-29T13:05:49.858Z,3292
2017-11-29T13:06:49.882Z,3316
2017-11-29T13:07:49.637Z,3332
2017-11-29T13:08:49.916Z,3244
2017-11-29T13:09:49.962Z,3284
2017-11-29T13:11:04.607Z,3296
2017-11-29T13:11:49.708Z,3312
2017-11-29T13:12:50.017Z,3308
2017-11-29T13:13:50.024Z,3312
2017-11-29T13:14:50.047Z,3312
2017-11-29T13:15:50.068Z,3328
2017-11-29T13:16:50.089Z,3324
2017-11-29T13:17:50.061Z,3324
2017-11-29T13:19:50.111Z,3300
2017-11-29T13:20:49.873Z,3280
2017-11-29T13:21:49.618Z,3260
2017-11-29T13:22:50.145Z,3252
2017-11-29T13:23:50.162Z,3216
2017-11-29T13:25:04.875Z,3168
2017-11-29T13:25:50.206Z,3132
2017-11-29T13:26:50.207Z,3088
2017-11-29T13:27:50.238Z,3068
2017-11-29T13:28:50.262Z,3064
2017-11-29T13:30:04.911Z,3024
2017-11-29T13:30:50.332Z,3016
2017-11-29T13:32:50.331Z,2952
2017-11-29T13:34:05.005Z,2924
2017-11-29T13:35:05.041Z,2864
2017-11-29T13:35:50.388Z,2840
2017-11-29T13:36:50.366Z,2800
2017-11-29T13:37:50.441Z,2760
2017-11-29T13:38:50.180Z,2712
2017-11-29T13:39:50.457Z,2680
2017-11-29T13:40:50.462Z,2644
2017-11-29T13:41:50.477Z,2508
2017-11-29T13:43:04.874Z,2332
2017-11-29T13:43:50.491Z,2268
2017-11-29T13:44:50.528Z,2232
2017-11-29T13:45:50.553Z,2360
2017-11-29T13:47:05.216Z,2328
2017-11-29T13:48:05.230Z,2320
2017-11-29T13:48:50.638Z,2308
2017-11-29T13:50:50.636Z,2108
2017-11-29T13:51:50.140Z,1924
2017-11-29T13:52:50.651Z,1884
2017-11-29T13:53:50.710Z,1808
2017-11-29T13:54:50.684Z,1736
2017-11-29T13:55:50.742Z,1692
2017-11-29T13:56:50.708Z,1636
2017-11-29T13:57:50.771Z,1608
2017-11-29T13:59:05.394Z,1548
2017-11-29T13:59:50.577Z,1520
2017-11-29T14:01:05.463Z,1480
2017-11-29T14:01:50.567Z,1476
2017-11-29T14:02:50.838Z,1468
2017-11-29T14:03:50.859Z,1464
2017-11-29T14:04:50.964Z,1452
2017-11-29T14:05:50.887Z,1428
2017-11-29T14:06:50.366Z,1420
2017-11-29T14:07:50.913Z,1388
2017-11-29T14:08:50.932Z,1360
2017-11-29T14:09:52.378Z,1344
2017-11-29T14:10:50.997Z,1324
2017-11-29T14:11:50.994Z,1292
2017-11-29T14:12:51.016Z,1252
2017-11-29T14:15:05.434Z,1176
2017-11-29T14:15:51.064Z,1152
2017-11-29T14:16:50.786Z,1124
2017-11-29T14:17:51.090Z,1092
2017-11-29T14:19:05.744Z,1060
2017-11-29T14:19:50.855Z,1040
2017-11-29T14:20:51.113Z,1024
2017-11-29T14:21:50.882Z,1004
2017-11-29T14:22:50.904Z,996
2017-11-29T14:23:51.195Z,980
2017-11-29T14:24:50.919Z,968
2017-11-29T14:25:51.189Z,944
2017-11-29T14:26:51.229Z,916
2017-11-29T14:27:51.247Z,884
2017-11-29T14:29:05.899Z,840
2017-11-29T14:31:05.685Z,772
2017-11-29T14:31:51.338Z,748
2017-11-29T14:32:51.332Z,716
2017-11-29T14:33:51.327Z,688
2017-11-29T14:34:51.370Z,664
2017-11-29T14:35:51.425Z,640
2017-11-29T14:36:51.131Z,620
2017-11-29T14:37:51.146Z,596
2017-11-29T14:38:51.407Z,568
2017-11-29T14:39:51.143Z,548
2017-11-29T14:40:51.480Z,524
2017-11-29T14:41:51.476Z,496
2017-11-29T14:42:51.226Z,476
2017-11-29T14:43:51.241Z,452
2017-11-29T14:44:51.505Z,428
2017-11-29T14:46:06.193Z,400
2017-11-29T14:47:06.210Z,380
2017-11-29T14:47:51.589Z,360